Accueil
METAR-TAF:

METAR-TAF

Aéroports :

Aéroport d'Aden

Aden, Yémen

latitude: 12-40N, longitude: 045-02E, altitude: 3 m

Observation

Le bulletin a été fait il y a 13 minutes, à 05:00 UTC
Vent 7 kt de nord-est
Température 33°C
Humidité 63%
Pression 1009 hPa
Visibilité: 6000 m
Quelques nuages à une hauteur de 2000 ft

METAR: OYAA 130500Z 04007KT 6000 FEW020 33/25 Q1009 NOSIG

Heure: 08:13 (05:13 UTC)


TAF: absent

Observations et prévisions météorologiques de plus de 4000 aéroports (messages METAR et TAF).

Les stations disponibles sont représentées par des disques jaunes et rouges sur la carte.

Passer la souris dessus pour voir le nom de la station.

Cliquer dessus pour voir les observations et prévisions météorologiques.

Pour changer de carte: cliquez sur les boutons verts avec une croix noire pour zoomer, sur le bouton vert avec un tiret pour effectuer un zoom arrière, ou sur les flèches vertes pour les cartes adjacentes.


METAR-TAF: